ITY1632 LIBD-LIML
Flight info
| Callsign | ITY1632 |
|---|---|
| Flight time | 1h 23m |
| Altitude | 38000 |
| Route | TOPNO L995 DOGUS DCT LOMED DCT RUXOL Q920 KALIK |
| Aircraft | A320/M-SDE3FGHIRWY/LB1 |
Departure
| Time | 2026-05-08 16:35 |
|---|---|
| Airport | Bari Karol Wojtyła International Airport (LIBD) |
Arrival
| Time | 2026-05-08 17:58 |
|---|---|
| Airport | Milano Linate Airport (LIML) |
| Time | Latitude | Longitude | Altitude | Speed | Heading |
|---|---|---|---|---|---|
| 2026-05-08 15:54 | 41.13521 | 16.76347 | 137 ft | 0 kts | 159° |
| 2026-05-08 16:20 | 41.13523 | 16.76346 | 136 ft | 2 kts | 159° |
| 2026-05-08 16:21 | 41.13547 | 16.76334 | 136 ft | 4 kts | 159° |
| 2026-05-08 16:21 | 41.13573 | 16.76322 | 136 ft | 4 kts | 169° |
| 2026-05-08 16:21 | 41.13595 | 16.76322 | 136 ft | 4 kts | 229° |
| 2026-05-08 16:21 | 41.13599 | 16.76328 | 136 ft | 1 kts | 249° |
| 2026-05-08 16:25 | 41.13598 | 16.76327 | 136 ft | 1 kts | 249° |
| 2026-05-08 16:25 | 41.13589 | 16.76294 | 136 ft | 4 kts | 249° |
| 2026-05-08 16:26 | 41.13584 | 16.76277 | 136 ft | 2 kts | 250° |
| 2026-05-08 16:26 | 41.13577 | 16.76251 | 136 ft | 1 kts | 250° |
| 2026-05-08 16:26 | 41.13572 | 16.76233 | 136 ft | 7 kts | 250° |
| 2026-05-08 16:26 | 41.13558 | 16.76182 | 136 ft | 4 kts | 250° |
| 2026-05-08 16:27 | 41.13554 | 16.76167 | 136 ft | 3 kts | 253° |
| 2026-05-08 16:27 | 41.13561 | 16.76114 | 136 ft | 5 kts | 301° |
| 2026-05-08 16:27 | 41.13589 | 16.76078 | 136 ft | 5 kts | 320° |
| 2026-05-08 16:27 | 41.13613 | 16.76052 | 136 ft | 4 kts | 320° |
| 2026-05-08 16:28 | 41.13638 | 16.75999 | 136 ft | 6 kts | 284° |
| 2026-05-08 16:28 | 41.13638 | 16.75969 | 136 ft | 6 kts | 262° |
| 2026-05-08 16:28 | 41.13628 | 16.75931 | 136 ft | 5 kts | 250° |
| 2026-05-08 16:28 | 41.13609 | 16.75864 | 137 ft | 8 kts | 249° |
| 2026-05-08 16:29 | 41.13592 | 16.75805 | 138 ft | 8 kts | 249° |
| 2026-05-08 16:29 | 41.13567 | 16.75715 | 138 ft | 11 kts | 249° |
| 2026-05-08 16:29 | 41.13535 | 16.75603 | 138 ft | 15 kts | 249° |
| 2026-05-08 16:29 | 41.13502 | 16.75489 | 142 ft | 11 kts | 249° |
| 2026-05-08 16:30 | 41.13479 | 16.75413 | 142 ft | 7 kts | 249° |
| 2026-05-08 16:30 | 41.13459 | 16.75339 | 141 ft | 12 kts | 251° |
| 2026-05-08 16:30 | 41.13427 | 16.75221 | 143 ft | 13 kts | 250° |
| 2026-05-08 16:30 | 41.13397 | 16.75114 | 146 ft | 12 kts | 249° |
| 2026-05-08 16:31 | 41.13362 | 16.74992 | 147 ft | 17 kts | 249° |
| 2026-05-08 16:31 | 41.13318 | 16.74839 | 148 ft | 18 kts | 249° |
| 2026-05-08 16:31 | 41.13274 | 16.74685 | 152 ft | 16 kts | 249° |
| 2026-05-08 16:31 | 41.13230 | 16.74525 | 152 ft | 19 kts | 250° |
| 2026-05-08 16:32 | 41.13190 | 16.74385 | 154 ft | 15 kts | 249° |
| 2026-05-08 16:32 | 41.13164 | 16.74271 | 152 ft | 11 kts | 270° |
| 2026-05-08 16:32 | 41.13190 | 16.74189 | 149 ft | 8 kts | 300° |
| 2026-05-08 16:32 | 41.13222 | 16.74131 | 146 ft | 9 kts | 314° |
| 2026-05-08 16:33 | 41.13272 | 16.74091 | 145 ft | 8 kts | 347° |
| 2026-05-08 16:33 | 41.13306 | 16.74130 | 146 ft | 6 kts | 68° |
| 2026-05-08 16:33 | 41.13308 | 16.74136 | 146 ft | 0 kts | 69° |
| 2026-05-08 16:34 | 41.13308 | 16.74137 | 146 ft | 2 kts | 69° |
| 2026-05-08 16:34 | 41.13384 | 16.74405 | 146 ft | 67 kts | 70° |
| 2026-05-08 16:34 | 41.13625 | 16.75257 | 140 ft | 128 kts | 69° |
| 2026-05-08 16:34 | 41.13997 | 16.76552 | 261 ft | 163 kts | 68° |
| 2026-05-08 16:35 | 41.14384 | 16.77959 | 1001 ft | 162 kts | 68° |
| 2026-05-08 16:35 | 41.14770 | 16.79354 | 1793 ft | 161 kts | 68° |
| 2026-05-08 16:35 | 41.15157 | 16.80738 | 2514 ft | 160 kts | 68° |
| 2026-05-08 16:35 | 41.15545 | 16.82116 | 3188 ft | 159 kts | 69° |
| 2026-05-08 16:36 | 41.15941 | 16.83524 | 3628 ft | 172 kts | 69° |
| 2026-05-08 16:36 | 41.16389 | 16.85105 | 3892 ft | 195 kts | 70° |
| 2026-05-08 16:36 | 41.16898 | 16.86901 | 4214 ft | 220 kts | 70° |
| 2026-05-08 16:36 | 41.17462 | 16.88890 | 4739 ft | 237 kts | 68° |
| 2026-05-08 16:37 | 41.18329 | 16.90767 | 5553 ft | 243 kts | 46° |
| 2026-05-08 16:37 | 41.19752 | 16.92018 | 6383 ft | 253 kts | 22° |
| 2026-05-08 16:37 | 41.21544 | 16.92331 | 7017 ft | 269 kts | 354° |
| 2026-05-08 16:37 | 41.23385 | 16.91742 | 7860 ft | 274 kts | 346° |
| 2026-05-08 16:38 | 41.25234 | 16.91055 | 8752 ft | 277 kts | 344° |
| 2026-05-08 16:38 | 41.27067 | 16.90337 | 9639 ft | 279 kts | 337° |
| 2026-05-08 16:38 | 41.28724 | 16.88937 | 10348 ft | 284 kts | 314° |
| 2026-05-08 16:38 | 41.29816 | 16.86661 | 10614 ft | 306 kts | 288° |
| 2026-05-08 16:39 | 41.29982 | 16.83782 | 11006 ft | 323 kts | 260° |
| 2026-05-08 16:39 | 41.29409 | 16.80907 | 11699 ft | 328 kts | 255° |
| 2026-05-08 16:39 | 41.28783 | 16.77969 | 12445 ft | 332 kts | 255° |
| 2026-05-08 16:39 | 41.28157 | 16.74998 | 13200 ft | 336 kts | 255° |
| 2026-05-08 16:40 | 41.27526 | 16.71994 | 13933 ft | 339 kts | 255° |
| 2026-05-08 16:40 | 41.26890 | 16.68963 | 14597 ft | 342 kts | 255° |
| 2026-05-08 16:40 | 41.26250 | 16.65904 | 15267 ft | 344 kts | 255° |
| 2026-05-08 16:40 | 41.25605 | 16.62829 | 15947 ft | 347 kts | 255° |
| 2026-05-08 16:41 | 41.24953 | 16.59733 | 16622 ft | 349 kts | 255° |
| 2026-05-08 16:41 | 41.24297 | 16.56623 | 17294 ft | 351 kts | 255° |
| 2026-05-08 16:41 | 41.23478 | 16.53562 | 17954 ft | 354 kts | 245° |
| 2026-05-08 16:42 | 41.20545 | 16.48254 | 19109 ft | 361 kts | 230° |
| 2026-05-08 16:42 | 41.18857 | 16.45769 | 19672 ft | 364 kts | 230° |
| 2026-05-08 16:42 | 41.17158 | 16.43255 | 20254 ft | 367 kts | 230° |
| 2026-05-08 16:42 | 41.15451 | 16.40723 | 20797 ft | 370 kts | 230° |
| 2026-05-08 16:43 | 41.13727 | 16.38163 | 21330 ft | 373 kts | 230° |
| 2026-05-08 16:43 | 41.11990 | 16.35587 | 21869 ft | 376 kts | 230° |
| 2026-05-08 16:43 | 41.10234 | 16.32987 | 22411 ft | 380 kts | 230° |
| 2026-05-08 16:43 | 41.08466 | 16.30368 | 22947 ft | 383 kts | 230° |
| 2026-05-08 16:44 | 41.06683 | 16.27730 | 23470 ft | 386 kts | 230° |
| 2026-05-08 16:44 | 41.04882 | 16.25071 | 23920 ft | 389 kts | 230° |
| 2026-05-08 16:44 | 41.03071 | 16.22404 | 24377 ft | 390 kts | 231° |
| 2026-05-08 16:44 | 41.01256 | 16.19736 | 24864 ft | 390 kts | 231° |
| 2026-05-08 16:45 | 40.99441 | 16.17061 | 25317 ft | 391 kts | 232° |
| 2026-05-08 16:45 | 40.97828 | 16.14184 | 25740 ft | 387 kts | 244° |
| 2026-05-08 16:45 | 40.96752 | 16.10946 | 26173 ft | 384 kts | 256° |
| 2026-05-08 16:45 | 40.96252 | 16.07499 | 26598 ft | 381 kts | 268° |
| 2026-05-08 16:46 | 40.96348 | 16.04014 | 27031 ft | 380 kts | 279° |
| 2026-05-08 16:46 | 40.96905 | 16.00603 | 27473 ft | 380 kts | 283° |
| 2026-05-08 16:46 | 40.97494 | 15.97199 | 27949 ft | 378 kts | 283° |
| 2026-05-08 16:46 | 40.98070 | 15.93809 | 28431 ft | 377 kts | 283° |
| 2026-05-08 16:47 | 40.98640 | 15.90419 | 28872 ft | 378 kts | 283° |
| 2026-05-08 16:47 | 40.99210 | 15.87018 | 29265 ft | 379 kts | 283° |
| 2026-05-08 16:47 | 40.99772 | 15.83659 | 29633 ft | 380 kts | 283° |
| 2026-05-08 16:47 | 41.00344 | 15.80246 | 30002 ft | 381 kts | 283° |
| 2026-05-08 16:48 | 41.00918 | 15.76822 | 30322 ft | 382 kts | 283° |
| 2026-05-08 16:48 | 41.01576 | 15.73414 | 30581 ft | 383 kts | 289° |
| 2026-05-08 16:48 | 41.02654 | 15.70175 | 30822 ft | 386 kts | 297° |
| 2026-05-08 16:48 | 41.04172 | 15.67225 | 31070 ft | 391 kts | 307° |
| 2026-05-08 16:49 | 41.06008 | 15.64543 | 31302 ft | 394 kts | 309° |
| 2026-05-08 16:49 | 41.07871 | 15.61858 | 31509 ft | 397 kts | 308° |
| 2026-05-08 16:49 | 41.09736 | 15.59159 | 31738 ft | 398 kts | 308° |
| 2026-05-08 16:49 | 41.11603 | 15.56447 | 32049 ft | 397 kts | 308° |
| 2026-05-08 16:50 | 41.13461 | 15.53741 | 32364 ft | 397 kts | 308° |
| 2026-05-08 16:50 | 41.15317 | 15.51036 | 32726 ft | 395 kts | 309° |
| 2026-05-08 16:50 | 41.17164 | 15.48347 | 33070 ft | 394 kts | 309° |
| 2026-05-08 16:50 | 41.19009 | 15.45662 | 33386 ft | 393 kts | 309° |
| 2026-05-08 16:51 | 41.20850 | 15.42981 | 33693 ft | 393 kts | 309° |
| 2026-05-08 16:51 | 41.22688 | 15.40304 | 34004 ft | 392 kts | 309° |
| 2026-05-08 16:51 | 41.24526 | 15.37625 | 34273 ft | 392 kts | 308° |
| 2026-05-08 16:51 | 41.26357 | 15.34949 | 34528 ft | 392 kts | 308° |
| 2026-05-08 16:52 | 41.28188 | 15.32270 | 34776 ft | 391 kts | 308° |
| 2026-05-08 16:52 | 41.30018 | 15.29586 | 35010 ft | 392 kts | 308° |
| 2026-05-08 16:52 | 41.31850 | 15.26902 | 35188 ft | 393 kts | 308° |
| 2026-05-08 16:52 | 41.33689 | 15.24206 | 35375 ft | 394 kts | 308° |
| 2026-05-08 16:53 | 41.37382 | 15.18792 | 35776 ft | 394 kts | 308° |
| 2026-05-08 16:53 | 41.39218 | 15.16095 | 35972 ft | 395 kts | 308° |
| 2026-05-08 16:53 | 41.41059 | 15.13385 | 36061 ft | 395 kts | 308° |
| 2026-05-08 16:54 | 41.44733 | 15.07961 | 36057 ft | 394 kts | 308° |
| 2026-05-08 16:54 | 41.48397 | 15.02542 | 36054 ft | 393 kts | 308° |
| 2026-05-08 16:55 | 41.52058 | 14.97126 | 36053 ft | 393 kts | 308° |
| 2026-05-08 16:55 | 41.55694 | 14.91736 | 36049 ft | 394 kts | 308° |
| 2026-05-08 16:56 | 41.59366 | 14.86290 | 36054 ft | 395 kts | 308° |
| 2026-05-08 16:56 | 41.63043 | 14.80823 | 36053 ft | 395 kts | 308° |
| 2026-05-08 16:57 | 41.66718 | 14.75349 | 36068 ft | 395 kts | 308° |
| 2026-05-08 16:57 | 41.70384 | 14.69879 | 36054 ft | 394 kts | 308° |
| 2026-05-08 16:58 | 41.74043 | 14.64406 | 36048 ft | 394 kts | 307° |
| 2026-05-08 16:58 | 41.77680 | 14.58947 | 36049 ft | 391 kts | 307° |
| 2026-05-08 16:59 | 41.81295 | 14.53526 | 36050 ft | 390 kts | 307° |
| 2026-05-08 16:59 | 41.84905 | 14.48102 | 36048 ft | 390 kts | 307° |
| 2026-05-08 17:00 | 41.88508 | 14.42672 | 36052 ft | 390 kts | 308° |
| 2026-05-08 17:00 | 41.92108 | 14.37232 | 36054 ft | 390 kts | 307° |
| 2026-05-08 17:01 | 41.95702 | 14.31789 | 36055 ft | 390 kts | 307° |
| 2026-05-08 17:01 | 41.99275 | 14.26371 | 36055 ft | 390 kts | 307° |
| 2026-05-08 17:02 | 42.02871 | 14.20912 | 36055 ft | 390 kts | 307° |
| 2026-05-08 17:02 | 42.06475 | 14.15445 | 36034 ft | 391 kts | 307° |
| 2026-05-08 17:03 | 42.10092 | 14.09940 | 36036 ft | 393 kts | 307° |
| 2026-05-08 17:03 | 42.13708 | 14.04413 | 36055 ft | 393 kts | 307° |
| 2026-05-08 17:04 | 42.17320 | 13.98880 | 36078 ft | 393 kts | 307° |
| 2026-05-08 17:04 | 42.20925 | 13.93354 | 36073 ft | 392 kts | 307° |
| 2026-05-08 17:05 | 42.24528 | 13.87830 | 36071 ft | 392 kts | 307° |
| 2026-05-08 17:05 | 42.28121 | 13.82305 | 36076 ft | 392 kts | 307° |
| 2026-05-08 17:06 | 42.31721 | 13.76762 | 36072 ft | 392 kts | 307° |
| 2026-05-08 17:06 | 42.35313 | 13.71213 | 36069 ft | 392 kts | 307° |
| 2026-05-08 17:07 | 42.38908 | 13.65653 | 36070 ft | 393 kts | 307° |
| 2026-05-08 17:07 | 42.42499 | 13.60082 | 36085 ft | 393 kts | 307° |
| 2026-05-08 17:08 | 42.46094 | 13.54508 | 36081 ft | 393 kts | 307° |
| 2026-05-08 17:08 | 42.49689 | 13.48920 | 36078 ft | 393 kts | 307° |
| 2026-05-08 17:09 | 42.53254 | 13.43360 | 36068 ft | 394 kts | 307° |
| 2026-05-08 17:09 | 42.56845 | 13.37746 | 36075 ft | 394 kts | 306° |
| 2026-05-08 17:10 | 42.60437 | 13.32128 | 36070 ft | 394 kts | 306° |
| 2026-05-08 17:10 | 42.64025 | 13.26509 | 36071 ft | 394 kts | 306° |
| 2026-05-08 17:11 | 42.67609 | 13.20880 | 36084 ft | 394 kts | 307° |
| 2026-05-08 17:11 | 42.71191 | 13.15240 | 36076 ft | 394 kts | 306° |
| 2026-05-08 17:12 | 42.74776 | 13.09594 | 36077 ft | 394 kts | 306° |
| 2026-05-08 17:12 | 42.78357 | 13.03942 | 36069 ft | 394 kts | 306° |
| 2026-05-08 17:13 | 42.81937 | 12.98274 | 36071 ft | 395 kts | 306° |
| 2026-05-08 17:13 | 42.85515 | 12.92600 | 36067 ft | 395 kts | 306° |
| 2026-05-08 17:14 | 42.89087 | 12.86919 | 36057 ft | 394 kts | 306° |
| 2026-05-08 17:14 | 42.92657 | 12.81231 | 36081 ft | 394 kts | 306° |
| 2026-05-08 17:15 | 42.96221 | 12.75547 | 36069 ft | 394 kts | 306° |
| 2026-05-08 17:15 | 42.99760 | 12.69891 | 36071 ft | 394 kts | 306° |
| 2026-05-08 17:16 | 43.03324 | 12.64189 | 36070 ft | 395 kts | 306° |
| 2026-05-08 17:16 | 43.06882 | 12.58476 | 36056 ft | 395 kts | 306° |
| 2026-05-08 17:17 | 43.10443 | 12.52760 | 36058 ft | 395 kts | 306° |
| 2026-05-08 17:17 | 43.13996 | 12.47038 | 36067 ft | 395 kts | 306° |
| 2026-05-08 17:18 | 43.17552 | 12.41307 | 36086 ft | 395 kts | 306° |
| 2026-05-08 17:18 | 43.21100 | 12.35564 | 36085 ft | 395 kts | 306° |
| 2026-05-08 17:19 | 43.24644 | 12.29817 | 36073 ft | 395 kts | 306° |
| 2026-05-08 17:19 | 43.28189 | 12.24059 | 36058 ft | 395 kts | 306° |
| 2026-05-08 17:20 | 43.31133 | 12.19274 | 36053 ft | 395 kts | 306° |
| 2026-05-08 17:20 | 43.34677 | 12.13505 | 36051 ft | 395 kts | 306° |
| 2026-05-08 17:21 | 43.38218 | 12.07725 | 36048 ft | 395 kts | 306° |
| 2026-05-08 17:21 | 43.41752 | 12.01933 | 36064 ft | 395 kts | 306° |
| 2026-05-08 17:22 | 43.45289 | 11.96151 | 36062 ft | 395 kts | 306° |
| 2026-05-08 17:22 | 43.48572 | 11.90763 | 36058 ft | 395 kts | 305° |
| 2026-05-08 17:23 | 43.51481 | 11.85964 | 36049 ft | 394 kts | 305° |
| 2026-05-08 17:23 | 43.54998 | 11.80162 | 36052 ft | 394 kts | 306° |
| 2026-05-08 17:24 | 43.58511 | 11.74366 | 36041 ft | 394 kts | 306° |
| 2026-05-08 17:24 | 43.62021 | 11.68563 | 36042 ft | 394 kts | 305° |
| 2026-05-08 17:25 | 43.65531 | 11.62741 | 36055 ft | 395 kts | 305° |
| 2026-05-08 17:25 | 43.69047 | 11.56917 | 36049 ft | 395 kts | 305° |
| 2026-05-08 17:26 | 43.72550 | 11.51080 | 36043 ft | 395 kts | 305° |
| 2026-05-08 17:26 | 43.76055 | 11.45231 | 36028 ft | 395 kts | 305° |
| 2026-05-08 17:27 | 43.79556 | 11.39372 | 36041 ft | 395 kts | 305° |
| 2026-05-08 17:27 | 43.83061 | 11.33513 | 36028 ft | 395 kts | 305° |
| 2026-05-08 17:28 | 43.86559 | 11.27646 | 36051 ft | 395 kts | 305° |
| 2026-05-08 17:28 | 43.90028 | 11.21804 | 36010 ft | 395 kts | 305° |
| 2026-05-08 17:29 | 43.93523 | 11.15921 | 36013 ft | 395 kts | 305° |
| 2026-05-08 17:29 | 43.97011 | 11.10040 | 36022 ft | 395 kts | 305° |
| 2026-05-08 17:30 | 44.00485 | 11.04142 | 36038 ft | 394 kts | 305° |
| 2026-05-08 17:30 | 44.02089 | 11.01084 | 35761 ft | 388 kts | 297° |
| 2026-05-08 17:30 | 44.03272 | 10.97756 | 35133 ft | 383 kts | 288° |
| 2026-05-08 17:31 | 44.04063 | 10.94237 | 34558 ft | 380 kts | 285° |
| 2026-05-08 17:31 | 44.04796 | 10.90735 | 34134 ft | 374 kts | 285° |
| 2026-05-08 17:31 | 44.05532 | 10.87300 | 33649 ft | 368 kts | 285° |
| 2026-05-08 17:31 | 44.06269 | 10.83911 | 33118 ft | 365 kts | 285° |
| 2026-05-08 17:32 | 44.06999 | 10.80545 | 32554 ft | 362 kts | 285° |
| 2026-05-08 17:32 | 44.07718 | 10.77206 | 32018 ft | 359 kts | 285° |
| 2026-05-08 17:32 | 44.08432 | 10.73885 | 31481 ft | 357 kts | 285° |
| 2026-05-08 17:32 | 44.09135 | 10.70591 | 30949 ft | 355 kts | 285° |
| 2026-05-08 17:33 | 44.09832 | 10.67314 | 30445 ft | 352 kts | 285° |
| 2026-05-08 17:33 | 44.10525 | 10.64055 | 29877 ft | 350 kts | 285° |
| 2026-05-08 17:33 | 44.11251 | 10.60828 | 29272 ft | 349 kts | 289° |
| 2026-05-08 17:33 | 44.12291 | 10.57771 | 28643 ft | 351 kts | 298° |
| 2026-05-08 17:34 | 44.13634 | 10.54914 | 28066 ft | 353 kts | 301° |
| 2026-05-08 17:34 | 44.15002 | 10.52072 | 27498 ft | 354 kts | 301° |
| 2026-05-08 17:34 | 44.16370 | 10.49225 | 26971 ft | 353 kts | 301° |
| 2026-05-08 17:34 | 44.17734 | 10.46384 | 26437 ft | 353 kts | 301° |
| 2026-05-08 17:35 | 44.19096 | 10.43545 | 25915 ft | 352 kts | 301° |
| 2026-05-08 17:35 | 44.20453 | 10.40698 | 25391 ft | 352 kts | 300° |
| 2026-05-08 17:35 | 44.21804 | 10.37855 | 24879 ft | 352 kts | 301° |
| 2026-05-08 17:35 | 44.23155 | 10.35011 | 24385 ft | 352 kts | 301° |
| 2026-05-08 17:36 | 44.24508 | 10.32165 | 23895 ft | 352 kts | 301° |
| 2026-05-08 17:36 | 44.25860 | 10.29322 | 23342 ft | 352 kts | 301° |
| 2026-05-08 17:36 | 44.27206 | 10.26480 | 22801 ft | 350 kts | 301° |
| 2026-05-08 17:36 | 44.28546 | 10.23658 | 22291 ft | 348 kts | 301° |
| 2026-05-08 17:37 | 44.29879 | 10.20851 | 21856 ft | 346 kts | 301° |
| 2026-05-08 17:37 | 44.31204 | 10.18056 | 21415 ft | 344 kts | 302° |
| 2026-05-08 17:37 | 44.32520 | 10.15281 | 20990 ft | 342 kts | 302° |
| 2026-05-08 17:37 | 44.33828 | 10.12517 | 20529 ft | 340 kts | 302° |
| 2026-05-08 17:38 | 44.35124 | 10.09770 | 20067 ft | 338 kts | 302° |
| 2026-05-08 17:38 | 44.36413 | 10.07036 | 19646 ft | 336 kts | 302° |
| 2026-05-08 17:38 | 44.37695 | 10.04310 | 19240 ft | 335 kts | 302° |
| 2026-05-08 17:38 | 44.38968 | 10.01599 | 18825 ft | 333 kts | 302° |
| 2026-05-08 17:39 | 44.40237 | 9.98900 | 18407 ft | 332 kts | 302° |
| 2026-05-08 17:39 | 44.41503 | 9.96206 | 17990 ft | 330 kts | 302° |
| 2026-05-08 17:39 | 44.42760 | 9.93525 | 17560 ft | 329 kts | 302° |
| 2026-05-08 17:39 | 44.44008 | 9.90856 | 17137 ft | 327 kts | 302° |
| 2026-05-08 17:40 | 44.45252 | 9.88198 | 16717 ft | 326 kts | 302° |
| 2026-05-08 17:40 | 44.46492 | 9.85547 | 16300 ft | 325 kts | 302° |
| 2026-05-08 17:40 | 44.47739 | 9.82921 | 15909 ft | 323 kts | 304° |
| 2026-05-08 17:40 | 44.49001 | 9.80370 | 15533 ft | 322 kts | 304° |
| 2026-05-08 17:41 | 44.50288 | 9.77816 | 15146 ft | 321 kts | 305° |
| 2026-05-08 17:41 | 44.51575 | 9.75274 | 14774 ft | 319 kts | 305° |
| 2026-05-08 17:41 | 44.52857 | 9.72739 | 14393 ft | 318 kts | 305° |
| 2026-05-08 17:41 | 44.54128 | 9.70214 | 14038 ft | 317 kts | 305° |
| 2026-05-08 17:42 | 44.55390 | 9.67693 | 13655 ft | 315 kts | 304° |
| 2026-05-08 17:42 | 44.56641 | 9.65181 | 13250 ft | 313 kts | 304° |
| 2026-05-08 17:42 | 44.57882 | 9.62680 | 12853 ft | 312 kts | 304° |
| 2026-05-08 17:42 | 44.59115 | 9.60191 | 12468 ft | 310 kts | 304° |
| 2026-05-08 17:43 | 44.60338 | 9.57723 | 12093 ft | 306 kts | 304° |
| 2026-05-08 17:43 | 44.61552 | 9.55278 | 11700 ft | 304 kts | 304° |
| 2026-05-08 17:43 | 44.62754 | 9.52847 | 11307 ft | 303 kts | 304° |
| 2026-05-08 17:43 | 44.63952 | 9.50420 | 10982 ft | 300 kts | 304° |
| 2026-05-08 17:44 | 44.65123 | 9.48055 | 10801 ft | 291 kts | 304° |
| 2026-05-08 17:44 | 44.66271 | 9.45732 | 10465 ft | 289 kts | 304° |
| 2026-05-08 17:44 | 44.67412 | 9.43412 | 10124 ft | 288 kts | 304° |
| 2026-05-08 17:44 | 44.68532 | 9.41135 | 10025 ft | 277 kts | 303° |
| 2026-05-08 17:45 | 44.69617 | 9.38968 | 10036 ft | 268 kts | 308° |
| 2026-05-08 17:45 | 44.70944 | 9.37155 | 10043 ft | 267 kts | 323° |
| 2026-05-08 17:45 | 44.72562 | 9.35886 | 10045 ft | 268 kts | 338° |
| 2026-05-08 17:45 | 44.74365 | 9.35241 | 10043 ft | 268 kts | 353° |
| 2026-05-08 17:46 | 44.76231 | 9.35035 | 10044 ft | 267 kts | 355° |
| 2026-05-08 17:46 | 44.78030 | 9.34856 | 9999 ft | 253 kts | 354° |
| 2026-05-08 17:46 | 44.79760 | 9.34681 | 9819 ft | 246 kts | 354° |
| 2026-05-08 17:46 | 44.81460 | 9.34503 | 9506 ft | 245 kts | 354° |
| 2026-05-08 17:47 | 44.83154 | 9.34321 | 9169 ft | 244 kts | 355° |
| 2026-05-08 17:47 | 44.84841 | 9.34137 | 8868 ft | 242 kts | 355° |
| 2026-05-08 17:47 | 44.86520 | 9.33955 | 8545 ft | 242 kts | 355° |
| 2026-05-08 17:47 | 44.87629 | 9.33836 | 8355 ft | 241 kts | 355° |
| 2026-05-08 17:48 | 44.89861 | 9.33600 | 7954 ft | 239 kts | 355° |
| 2026-05-08 17:48 | 44.91516 | 9.33425 | 7650 ft | 238 kts | 355° |
| 2026-05-08 17:48 | 44.93163 | 9.33250 | 7352 ft | 237 kts | 355° |
| 2026-05-08 17:48 | 44.94807 | 9.33074 | 7053 ft | 236 kts | 355° |
| 2026-05-08 17:49 | 44.96442 | 9.32899 | 6749 ft | 236 kts | 356° |
| 2026-05-08 17:49 | 44.98071 | 9.32726 | 6466 ft | 234 kts | 356° |
| 2026-05-08 17:49 | 44.99693 | 9.32556 | 6163 ft | 233 kts | 356° |
| 2026-05-08 17:49 | 45.01307 | 9.32384 | 5838 ft | 233 kts | 356° |
| 2026-05-08 17:50 | 45.02918 | 9.32208 | 5519 ft | 232 kts | 356° |
| 2026-05-08 17:50 | 45.04530 | 9.32031 | 5214 ft | 231 kts | 357° |
| 2026-05-08 17:50 | 45.06132 | 9.31855 | 4925 ft | 230 kts | 356° |
| 2026-05-08 17:50 | 45.07721 | 9.31682 | 4646 ft | 228 kts | 357° |
| 2026-05-08 17:51 | 45.09302 | 9.31509 | 4339 ft | 227 kts | 358° |
| 2026-05-08 17:51 | 45.10878 | 9.31337 | 4035 ft | 227 kts | 357° |
| 2026-05-08 17:51 | 45.12447 | 9.31167 | 3737 ft | 225 kts | 357° |
| 2026-05-08 17:51 | 45.14011 | 9.30997 | 3433 ft | 225 kts | 357° |
| 2026-05-08 17:52 | 45.15562 | 9.30827 | 3134 ft | 223 kts | 358° |
| 2026-05-08 17:52 | 45.17102 | 9.30660 | 3007 ft | 222 kts | 358° |
| 2026-05-08 17:52 | 45.20151 | 9.30324 | 3009 ft | 216 kts | 357° |
| 2026-05-08 17:53 | 45.21640 | 9.30161 | 3009 ft | 213 kts | 357° |
| 2026-05-08 17:53 | 45.23118 | 9.30003 | 3015 ft | 213 kts | 356° |
| 2026-05-08 17:53 | 45.24593 | 9.29845 | 3013 ft | 213 kts | 357° |
| 2026-05-08 17:53 | 45.26048 | 9.29689 | 3004 ft | 204 kts | 357° |
| 2026-05-08 17:54 | 45.27425 | 9.29541 | 3040 ft | 195 kts | 357° |
| 2026-05-08 17:54 | 45.28764 | 9.29398 | 3012 ft | 191 kts | 357° |
| 2026-05-08 17:54 | 45.30089 | 9.29256 | 2888 ft | 190 kts | 357° |
| 2026-05-08 17:54 | 45.31406 | 9.29115 | 2675 ft | 189 kts | 358° |
| 2026-05-08 17:55 | 45.32710 | 9.28975 | 2430 ft | 185 kts | 357° |
| 2026-05-08 17:55 | 45.33951 | 9.28841 | 2191 ft | 174 kts | 358° |
| 2026-05-08 17:55 | 45.35117 | 9.28716 | 1968 ft | 161 kts | 357° |
| 2026-05-08 17:55 | 45.36171 | 9.28602 | 1776 ft | 149 kts | 358° |
| 2026-05-08 17:56 | 45.37182 | 9.28493 | 1589 ft | 144 kts | 358° |
| 2026-05-08 17:56 | 45.38190 | 9.28387 | 1393 ft | 142 kts | 358° |
| 2026-05-08 17:56 | 45.39171 | 9.28283 | 1197 ft | 141 kts | 357° |
| 2026-05-08 17:56 | 45.40141 | 9.28181 | 1038 ft | 139 kts | 355° |
| 2026-05-08 17:57 | 45.41094 | 9.28079 | 850 ft | 137 kts | 355° |
| 2026-05-08 17:57 | 45.42029 | 9.27977 | 666 ft | 136 kts | 355° |
| 2026-05-08 17:57 | 45.42970 | 9.27872 | 488 ft | 136 kts | 355° |
| 2026-05-08 17:57 | 45.43897 | 9.27774 | 368 ft | 126 kts | 355° |
| 2026-05-08 17:58 | 45.44629 | 9.27693 | 363 ft | 81 kts | 355° |
| 2026-05-08 17:58 | 45.45042 | 9.27649 | 360 ft | 45 kts | 356° |
| 2026-05-08 17:58 | 45.45246 | 9.27635 | 358 ft | 19 kts | 6° |
| 2026-05-08 17:58 | 45.45356 | 9.27691 | 361 ft | 12 kts | 26° |
| 2026-05-08 17:59 | 45.45411 | 9.27732 | 365 ft | 7 kts | 30° |
| 2026-05-08 17:59 | 45.45445 | 9.27771 | 360 ft | 5 kts | 47° |
| 2026-05-08 17:59 | 45.45471 | 9.27805 | 363 ft | 6 kts | 30° |
| 2026-05-08 17:59 | 45.45511 | 9.27814 | 362 ft | 5 kts | 1° |
| 2026-05-08 18:00 | 45.45545 | 9.27815 | 362 ft | 5 kts | 0° |
| 2026-05-08 18:00 | 45.45623 | 9.27817 | 360 ft | 5 kts | 0° |
| 2026-05-08 18:00 | 45.45675 | 9.27817 | 360 ft | 8 kts | 0° |
| 2026-05-08 18:01 | 45.45737 | 9.27818 | 360 ft | 10 kts | 0° |
| 2026-05-08 18:01 | 45.45806 | 9.27819 | 363 ft | 10 kts | 0° |
| 2026-05-08 18:01 | 45.45873 | 9.27820 | 360 ft | 6 kts | 2° |
| 2026-05-08 18:01 | 45.45899 | 9.27838 | 362 ft | 3 kts | 44° |
| 2026-05-08 18:02 | 45.45906 | 9.27865 | 365 ft | 3 kts | 78° |
| 2026-05-08 18:02 | 45.45907 | 9.27881 | 365 ft | 2 kts | 78° |
| 2026-05-08 18:02 | 45.45926 | 9.27900 | 360 ft | 3 kts | 18° |
| 2026-05-08 18:02 | 45.45946 | 9.27903 | 360 ft | 3 kts | 2° |
| 2026-05-08 18:03 | 45.45962 | 9.27903 | 360 ft | 2 kts | 1° |
| 2026-05-08 18:03 | 45.45971 | 9.27903 | 360 ft | 1 kts | 0° |
| 2026-05-08 18:03 | 45.45974 | 9.27903 | 360 ft | 0 kts | 0° |